sensor_id;sensor_type;location;lat;lon;timestamp;P1;durP1;ratioP1;P2;durP2;ratioP2
32874;SDS011;40468;42.128;24.750;2023-12-07T00:00:52;27.50;;;12.32;;
32874;SDS011;40468;42.128;24.750;2023-12-07T00:02:24;28.58;;;12.32;;
32874;SDS011;40468;42.128;24.750;2023-12-07T00:03:55;26.23;;;11.88;;
32874;SDS011;40468;42.128;24.750;2023-12-07T00:05:27;30.02;;;12.30;;
32874;SDS011;40468;42.128;24.750;2023-12-07T00:06:58;27.75;;;12.02;;
32874;SDS011;40468;42.128;24.750;2023-12-07T00:08:30;25.13;;;12.45;;
32874;SDS011;40468;42.128;24.750;2023-12-07T00:10:01;25.55;;;11.60;;
32874;SDS011;40468;42.128;24.750;2023-12-07T00:11:32;24.77;;;11.23;;
32874;SDS011;40468;42.128;24.750;2023-12-07T00:13:03;27.17;;;12.05;;
32874;SDS011;40468;42.128;24.750;2023-12-07T00:14:35;24.08;;;12.25;;
32874;SDS011;40468;42.128;24.750;2023-12-07T00:16:08;26.70;;;12.65;;
32874;SDS011;40468;42.128;24.750;2023-12-07T00:17:40;30.30;;;12.07;;
32874;SDS011;40468;42.128;24.750;2023-12-07T00:19:10;25.77;;;12.27;;
32874;SDS011;40468;42.128;24.750;2023-12-07T00:20:42;28.83;;;13.35;;
32874;SDS011;40468;42.128;24.750;2023-12-07T00:22:13;25.20;;;11.70;;
32874;SDS011;40468;42.128;24.750;2023-12-07T00:23:45;28.58;;;12.57;;
32874;SDS011;40468;42.128;24.750;2023-12-07T00:25:16;26.23;;;12.38;;
32874;SDS011;40468;42.128;24.750;2023-12-07T00:26:48;28.25;;;12.00;;
32874;SDS011;40468;42.128;24.750;2023-12-07T00:28:19;31.58;;;12.70;;
32874;SDS011;40468;42.128;24.750;2023-12-07T00:29:51;28.30;;;13.18;;
32874;SDS011;40468;42.128;24.750;2023-12-07T00:31:23;27.80;;;12.68;;
32874;SDS011;40468;42.128;24.750;2023-12-07T00:32:56;28.23;;;12.38;;
32874;SDS011;40468;42.128;24.750;2023-12-07T00:34:27;29.50;;;12.02;;
32874;SDS011;40468;42.128;24.750;2023-12-07T00:35:58;25.63;;;13.35;;
32874;SDS011;40468;42.128;24.750;2023-12-07T00:37:29;27.20;;;12.63;;
32874;SDS011;40468;42.128;24.750;2023-12-07T00:39:01;28.33;;;11.98;;
32874;SDS011;40468;42.128;24.750;2023-12-07T00:40:34;34.17;;;14.38;;
32874;SDS011;40468;42.128;24.750;2023-12-07T00:42:07;30.25;;;13.48;;
32874;SDS011;40468;42.128;24.750;2023-12-07T00:43:38;32.50;;;14.10;;
32874;SDS011;40468;42.128;24.750;2023-12-07T00:45:11;26.95;;;12.30;;
32874;SDS011;40468;42.128;24.750;2023-12-07T00:46:43;32.25;;;13.30;;
32874;SDS011;40468;42.128;24.750;2023-12-07T00:49:46;27.85;;;12.20;;
32874;SDS011;40468;42.128;24.750;2023-12-07T00:51:18;28.23;;;13.00;;
32874;SDS011;40468;42.128;24.750;2023-12-07T00:52:48;31.45;;;13.15;;
32874;SDS011;40468;42.128;24.750;2023-12-07T00:54:20;35.15;;;13.88;;
32874;SDS011;40468;42.128;24.750;2023-12-07T00:55:52;28.23;;;12.98;;
32874;SDS011;40468;42.128;24.750;2023-12-07T00:57:23;31.30;;;13.55;;
32874;SDS011;40468;42.128;24.750;2023-12-07T00:58:54;33.20;;;13.30;;
32874;SDS011;40468;42.128;24.750;2023-12-07T01:00:26;31.40;;;13.68;;
32874;SDS011;40468;42.128;24.750;2023-12-07T01:01:58;33.13;;;13.32;;
32874;SDS011;40468;42.128;24.750;2023-12-07T01:03:30;34.55;;;14.15;;
32874;SDS011;40468;42.128;24.750;2023-12-07T01:05:01;26.52;;;12.00;;
32874;SDS011;40468;42.128;24.750;2023-12-07T01:06:33;26.95;;;12.02;;
32874;SDS011;40468;42.128;24.750;2023-12-07T01:08:04;32.15;;;14.57;;
32874;SDS011;40468;42.128;24.750;2023-12-07T01:09:36;25.50;;;12.32;;
32874;SDS011;40468;42.128;24.750;2023-12-07T01:11:08;30.58;;;12.95;;
32874;SDS011;40468;42.128;24.750;2023-12-07T01:12:39;28.33;;;13.20;;
32874;SDS011;40468;42.128;24.750;2023-12-07T01:14:10;28.50;;;13.02;;
32874;SDS011;40468;42.128;24.750;2023-12-07T01:15:42;30.13;;;12.63;;
32874;SDS011;40468;42.128;24.750;2023-12-07T01:17:14;25.52;;;11.82;;
32874;SDS011;40468;42.128;24.750;2023-12-07T01:18:46;27.10;;;11.27;;
32874;SDS011;40468;42.128;24.750;2023-12-07T01:20:17;25.17;;;11.68;;
32874;SDS011;40468;42.128;24.750;2023-12-07T01:21:48;25.30;;;11.35;;
32874;SDS011;40468;42.128;24.750;2023-12-07T01:23:19;25.83;;;12.38;;
32874;SDS011;40468;42.128;24.750;2023-12-07T01:24:51;23.67;;;11.65;;
32874;SDS011;40468;42.128;24.750;2023-12-07T01:26:21;27.05;;;11.98;;
32874;SDS011;40468;42.128;24.750;2023-12-07T01:27:53;23.58;;;11.70;;
32874;SDS011;40468;42.128;24.750;2023-12-07T01:29:25;23.25;;;12.20;;
32874;SDS011;40468;42.128;24.750;2023-12-07T01:30:56;27.27;;;13.07;;
32874;SDS011;40468;42.128;24.750;2023-12-07T01:32:29;28.50;;;11.82;;
32874;SDS011;40468;42.128;24.750;2023-12-07T01:35:31;28.48;;;12.10;;
32874;SDS011;40468;42.128;24.750;2023-12-07T01:37:03;28.35;;;12.52;;
32874;SDS011;40468;42.128;24.750;2023-12-07T01:38:34;28.67;;;13.13;;
32874;SDS011;40468;42.128;24.750;2023-12-07T01:40:06;27.50;;;12.40;;
32874;SDS011;40468;42.128;24.750;2023-12-07T01:41:40;29.63;;;12.93;;
32874;SDS011;40468;42.128;24.750;2023-12-07T01:43:11;29.77;;;12.85;;
32874;SDS011;40468;42.128;24.750;2023-12-07T01:44:43;27.70;;;12.63;;
32874;SDS011;40468;42.128;24.750;2023-12-07T01:46:14;30.08;;;12.85;;
32874;SDS011;40468;42.128;24.750;2023-12-07T01:47:48;29.73;;;14.38;;
32874;SDS011;40468;42.128;24.750;2023-12-07T01:49:22;26.70;;;12.15;;
32874;SDS011;40468;42.128;24.750;2023-12-07T01:50:53;30.08;;;12.95;;
32874;SDS011;40468;42.128;24.750;2023-12-07T01:52:26;26.10;;;12.68;;
32874;SDS011;40468;42.128;24.750;2023-12-07T01:55:31;30.02;;;12.60;;
32874;SDS011;40468;42.128;24.750;2023-12-07T01:57:03;24.15;;;11.73;;
32874;SDS011;40468;42.128;24.750;2023-12-07T01:58:34;27.63;;;12.50;;
32874;SDS011;40468;42.128;24.750;2023-12-07T02:00:07;27.48;;;12.15;;
32874;SDS011;40468;42.128;24.750;2023-12-07T02:01:39;26.33;;;12.07;;
32874;SDS011;40468;42.128;24.750;2023-12-07T02:03:12;26.35;;;12.25;;
32874;SDS011;40468;42.128;24.750;2023-12-07T02:04:44;23.88;;;11.32;;
32874;SDS011;40468;42.128;24.750;2023-12-07T02:06:16;27.15;;;12.20;;
32874;SDS011;40468;42.128;24.750;2023-12-07T02:07:46;27.55;;;11.77;;
32874;SDS011;40468;42.128;24.750;2023-12-07T02:09:19;24.83;;;12.13;;
32874;SDS011;40468;42.128;24.750;2023-12-07T02:10:50;28.55;;;12.13;;
32874;SDS011;40468;42.128;24.750;2023-12-07T02:12:22;25.08;;;12.25;;
32874;SDS011;40468;42.128;24.750;2023-12-07T02:13:54;24.20;;;11.65;;
32874;SDS011;40468;42.128;24.750;2023-12-07T02:15:27;24.25;;;12.43;;
32874;SDS011;40468;42.128;24.750;2023-12-07T02:17:01;26.20;;;11.93;;
32874;SDS011;40468;42.128;24.750;2023-12-07T02:18:40;27.65;;;12.52;;
32874;SDS011;40468;42.128;24.750;2023-12-07T02:20:19;28.95;;;12.30;;
32874;SDS011;40468;42.128;24.750;2023-12-07T02:21:58;25.50;;;11.50;;
32874;SDS011;40468;42.128;24.750;2023-12-07T02:23:34;27.65;;;10.90;;
32874;SDS011;40468;42.128;24.750;2023-12-07T02:25:08;26.55;;;11.73;;
32874;SDS011;40468;42.128;24.750;2023-12-07T02:26:52;26.40;;;12.20;;
32874;SDS011;40468;42.128;24.750;2023-12-07T02:28:22;28.17;;;12.73;;
32874;SDS011;40468;42.128;24.750;2023-12-07T02:29:54;27.50;;;12.30;;
32874;SDS011;40468;42.128;24.750;2023-12-07T02:31:25;24.30;;;11.35;;
32874;SDS011;40468;42.128;24.750;2023-12-07T02:32:57;24.75;;;11.98;;
32874;SDS011;40468;42.128;24.750;2023-12-07T02:34:28;27.13;;;11.68;;
32874;SDS011;40468;42.128;24.750;2023-12-07T02:35:59;22.83;;;11.13;;
32874;SDS011;40468;42.128;24.750;2023-12-07T02:37:32;26.92;;;11.63;;
32874;SDS011;40468;42.128;24.750;2023-12-07T02:39:08;25.33;;;11.60;;
32874;SDS011;40468;42.128;24.750;2023-12-07T02:40:42;23.73;;;11.80;;
32874;SDS011;40468;42.128;24.750;2023-12-07T02:42:17;26.33;;;11.45;;
32874;SDS011;40468;42.128;24.750;2023-12-07T02:43:48;28.23;;;12.52;;
32874;SDS011;40468;42.128;24.750;2023-12-07T02:45:20;24.83;;;12.57;;
32874;SDS011;40468;42.128;24.750;2023-12-07T02:46:50;23.63;;;11.00;;
32874;SDS011;40468;42.128;24.750;2023-12-07T02:48:22;25.08;;;11.85;;
32874;SDS011;40468;42.128;24.750;2023-12-07T02:49:54;26.52;;;11.48;;
32874;SDS011;40468;42.128;24.750;2023-12-07T02:51:25;26.92;;;12.02;;
32874;SDS011;40468;42.128;24.750;2023-12-07T02:52:56;29.15;;;12.93;;
32874;SDS011;40468;42.128;24.750;2023-12-07T02:54:28;27.33;;;12.82;;
32874;SDS011;40468;42.128;24.750;2023-12-07T02:55:59;23.52;;;11.43;;
32874;SDS011;40468;42.128;24.750;2023-12-07T02:57:32;27.25;;;12.00;;
32874;SDS011;40468;42.128;24.750;2023-12-07T02:59:03;26.83;;;11.35;;
32874;SDS011;40468;42.128;24.750;2023-12-07T03:00:35;24.85;;;11.57;;
32874;SDS011;40468;42.128;24.750;2023-12-07T03:02:06;28.20;;;11.90;;
32874;SDS011;40468;42.128;24.750;2023-12-07T03:03:38;26.80;;;11.85;;
32874;SDS011;40468;42.128;24.750;2023-12-07T03:05:10;29.70;;;12.27;;
32874;SDS011;40468;42.128;24.750;2023-12-07T03:06:42;25.92;;;11.80;;
32874;SDS011;40468;42.128;24.750;2023-12-07T03:08:13;26.65;;;10.77;;
32874;SDS011;40468;42.128;24.750;2023-12-07T03:09:45;33.28;;;14.48;;
32874;SDS011;40468;42.128;24.750;2023-12-07T03:11:15;35.38;;;14.23;;
32874;SDS011;40468;42.128;24.750;2023-12-07T03:12:48;35.97;;;14.57;;
32874;SDS011;40468;42.128;24.750;2023-12-07T03:14:19;26.58;;;13.55;;
32874;SDS011;40468;42.128;24.750;2023-12-07T03:15:51;32.95;;;14.68;;
32874;SDS011;40468;42.128;24.750;2023-12-07T03:17:22;35.97;;;13.98;;
32874;SDS011;40468;42.128;24.750;2023-12-07T03:18:53;31.15;;;14.32;;
32874;SDS011;40468;42.128;24.750;2023-12-07T03:20:24;33.83;;;14.98;;
32874;SDS011;40468;42.128;24.750;2023-12-07T03:21:56;32.97;;;13.93;;
32874;SDS011;40468;42.128;24.750;2023-12-07T03:23:27;30.15;;;13.23;;
32874;SDS011;40468;42.128;24.750;2023-12-07T03:24:59;29.65;;;13.93;;
32874;SDS011;40468;42.128;24.750;2023-12-07T03:26:30;36.33;;;14.60;;
32874;SDS011;40468;42.128;24.750;2023-12-07T03:28:03;33.20;;;13.93;;
32874;SDS011;40468;42.128;24.750;2023-12-07T03:29:34;37.35;;;14.40;;
32874;SDS011;40468;42.128;24.750;2023-12-07T03:31:05;31.83;;;14.25;;
32874;SDS011;40468;42.128;24.750;2023-12-07T03:32:37;38.53;;;15.10;;
32874;SDS011;40468;42.128;24.750;2023-12-07T03:34:09;34.10;;;14.43;;
32874;SDS011;40468;42.128;24.750;2023-12-07T03:35:42;33.40;;;14.52;;
32874;SDS011;40468;42.128;24.750;2023-12-07T03:37:13;32.22;;;14.77;;
32874;SDS011;40468;42.128;24.750;2023-12-07T03:38:45;34.30;;;16.08;;
32874;SDS011;40468;42.128;24.750;2023-12-07T03:40:16;33.65;;;15.35;;
32874;SDS011;40468;42.128;24.750;2023-12-07T03:41:48;33.97;;;14.82;;
32874;SDS011;40468;42.128;24.750;2023-12-07T03:43:20;32.70;;;14.82;;
32874;SDS011;40468;42.128;24.750;2023-12-07T03:44:52;30.67;;;14.07;;
32874;SDS011;40468;42.128;24.750;2023-12-07T03:46:23;31.85;;;13.98;;
32874;SDS011;40468;42.128;24.750;2023-12-07T03:47:54;32.58;;;15.20;;
32874;SDS011;40468;42.128;24.750;2023-12-07T03:49:25;33.45;;;14.30;;
32874;SDS011;40468;42.128;24.750;2023-12-07T03:50:57;33.83;;;15.05;;
32874;SDS011;40468;42.128;24.750;2023-12-07T03:52:28;31.08;;;13.90;;
32874;SDS011;40468;42.128;24.750;2023-12-07T03:53:59;30.65;;;14.40;;
32874;SDS011;40468;42.128;24.750;2023-12-07T03:55:31;32.85;;;14.48;;
32874;SDS011;40468;42.128;24.750;2023-12-07T03:57:02;30.75;;;13.77;;
32874;SDS011;40468;42.128;24.750;2023-12-07T03:58:35;33.40;;;14.90;;
32874;SDS011;40468;42.128;24.750;2023-12-07T04:00:06;33.10;;;14.27;;
32874;SDS011;40468;42.128;24.750;2023-12-07T04:01:42;37.85;;;14.98;;
32874;SDS011;40468;42.128;24.750;2023-12-07T04:03:12;35.55;;;14.70;;
32874;SDS011;40468;42.128;24.750;2023-12-07T04:04:44;39.15;;;15.75;;
32874;SDS011;40468;42.128;24.750;2023-12-07T04:06:15;33.30;;;14.88;;
32874;SDS011;40468;42.128;24.750;2023-12-07T04:07:47;40.00;;;16.47;;
32874;SDS011;40468;42.128;24.750;2023-12-07T04:09:19;37.60;;;15.73;;
32874;SDS011;40468;42.128;24.750;2023-12-07T04:10:50;35.78;;;16.08;;
32874;SDS011;40468;42.128;24.750;2023-12-07T04:12:21;36.60;;;15.60;;
32874;SDS011;40468;42.128;24.750;2023-12-07T04:13:54;41.40;;;15.82;;
32874;SDS011;40468;42.128;24.750;2023-12-07T04:15:25;40.13;;;16.90;;
32874;SDS011;40468;42.128;24.750;2023-12-07T04:16:57;38.00;;;16.35;;
32874;SDS011;40468;42.128;24.750;2023-12-07T04:18:27;33.47;;;16.02;;
32874;SDS011;40468;42.128;24.750;2023-12-07T04:19:59;39.33;;;16.77;;
32874;SDS011;40468;42.128;24.750;2023-12-07T04:21:30;38.13;;;16.05;;
32874;SDS011;40468;42.128;24.750;2023-12-07T04:23:02;38.92;;;15.90;;
32874;SDS011;40468;42.128;24.750;2023-12-07T04:24:32;36.65;;;15.32;;
32874;SDS011;40468;42.128;24.750;2023-12-07T04:26:04;38.25;;;15.60;;
32874;SDS011;40468;42.128;24.750;2023-12-07T04:27:35;33.28;;;14.88;;
32874;SDS011;40468;42.128;24.750;2023-12-07T04:29:08;36.65;;;16.25;;
32874;SDS011;40468;42.128;24.750;2023-12-07T04:30:39;43.25;;;16.23;;
32874;SDS011;40468;42.128;24.750;2023-12-07T04:32:11;32.42;;;14.80;;
32874;SDS011;40468;42.128;24.750;2023-12-07T04:33:42;35.65;;;16.17;;
32874;SDS011;40468;42.128;24.750;2023-12-07T04:35:13;37.13;;;15.50;;
32874;SDS011;40468;42.128;24.750;2023-12-07T04:36:44;35.75;;;15.20;;
32874;SDS011;40468;42.128;24.750;2023-12-07T04:38:16;39.35;;;16.77;;
32874;SDS011;40468;42.128;24.750;2023-12-07T04:39:47;35.42;;;16.17;;
32874;SDS011;40468;42.128;24.750;2023-12-07T04:41:18;37.92;;;16.25;;
32874;SDS011;40468;42.128;24.750;2023-12-07T04:42:50;37.28;;;15.80;;
32874;SDS011;40468;42.128;24.750;2023-12-07T04:44:22;40.35;;;16.85;;
32874;SDS011;40468;42.128;24.750;2023-12-07T04:45:55;39.05;;;18.25;;
32874;SDS011;40468;42.128;24.750;2023-12-07T04:47:26;42.55;;;18.80;;
32874;SDS011;40468;42.128;24.750;2023-12-07T04:48:58;40.63;;;17.83;;
32874;SDS011;40468;42.128;24.750;2023-12-07T04:50:29;43.97;;;18.65;;
32874;SDS011;40468;42.128;24.750;2023-12-07T04:52:00;48.83;;;19.83;;
32874;SDS011;40468;42.128;24.750;2023-12-07T04:53:31;47.15;;;19.70;;
32874;SDS011;40468;42.128;24.750;2023-12-07T04:55:03;48.92;;;21.50;;
32874;SDS011;40468;42.128;24.750;2023-12-07T04:56:36;44.58;;;20.08;;
32874;SDS011;40468;42.128;24.750;2023-12-07T04:58:08;43.95;;;19.60;;
32874;SDS011;40468;42.128;24.750;2023-12-07T04:59:40;44.60;;;18.77;;
32874;SDS011;40468;42.128;24.750;2023-12-07T05:01:12;45.20;;;20.23;;
32874;SDS011;40468;42.128;24.750;2023-12-07T05:02:42;46.17;;;20.17;;
32874;SDS011;40468;42.128;24.750;2023-12-07T05:04:14;46.33;;;20.60;;
32874;SDS011;40468;42.128;24.750;2023-12-07T05:05:45;42.33;;;19.60;;
32874;SDS011;40468;42.128;24.750;2023-12-07T05:07:18;52.88;;;22.40;;
32874;SDS011;40468;42.128;24.750;2023-12-07T05:08:50;55.15;;;22.90;;
32874;SDS011;40468;42.128;24.750;2023-12-07T05:10:22;52.97;;;23.10;;
32874;SDS011;40468;42.128;24.750;2023-12-07T05:11:52;48.33;;;20.92;;
32874;SDS011;40468;42.128;24.750;2023-12-07T05:13:24;48.88;;;21.23;;
32874;SDS011;40468;42.128;24.750;2023-12-07T05:14:57;65.60;;;28.48;;
32874;SDS011;40468;42.128;24.750;2023-12-07T05:18:00;111.22;;;48.33;;
32874;SDS011;40468;42.128;24.750;2023-12-07T05:19:32;133.57;;;56.60;;
32874;SDS011;40468;42.128;24.750;2023-12-07T05:21:04;85.57;;;39.83;;
32874;SDS011;40468;42.128;24.750;2023-12-07T05:22:36;56.80;;;26.70;;
32874;SDS011;40468;42.128;24.750;2023-12-07T05:24:07;51.75;;;23.30;;
32874;SDS011;40468;42.128;24.750;2023-12-07T05:25:38;55.20;;;23.23;;
32874;SDS011;40468;42.128;24.750;2023-12-07T05:27:10;76.03;;;31.17;;
32874;SDS011;40468;42.128;24.750;2023-12-07T05:28:42;182.50;;;81.65;;
32874;SDS011;40468;42.128;24.750;2023-12-07T05:30:15;246.10;;;97.45;;
32874;SDS011;40468;42.128;24.750;2023-12-07T05:31:48;248.85;;;100.80;;
32874;SDS011;40468;42.128;24.750;2023-12-07T05:33:20;71.07;;;32.47;;
32874;SDS011;40468;42.128;24.750;2023-12-07T05:34:51;46.25;;;25.02;;
32874;SDS011;40468;42.128;24.750;2023-12-07T05:36:22;52.85;;;24.58;;
32874;SDS011;40468;42.128;24.750;2023-12-07T05:37:54;51.65;;;22.42;;
32874;SDS011;40468;42.128;24.750;2023-12-07T05:39:24;51.45;;;23.50;;
32874;SDS011;40468;42.128;24.750;2023-12-07T05:40:56;48.38;;;22.80;;
32874;SDS011;40468;42.128;24.750;2023-12-07T05:42:27;53.22;;;23.98;;
32874;SDS011;40468;42.128;24.750;2023-12-07T05:43:59;153.63;;;73.18;;
32874;SDS011;40468;42.128;24.750;2023-12-07T05:45:32;166.65;;;73.55;;
32874;SDS011;40468;42.128;24.750;2023-12-07T05:48:34;109.18;;;48.60;;
32874;SDS011;40468;42.128;24.750;2023-12-07T05:50:07;65.32;;;29.55;;
32874;SDS011;40468;42.128;24.750;2023-12-07T05:51:38;55.88;;;24.33;;
32874;SDS011;40468;42.128;24.750;2023-12-07T05:53:10;58.47;;;26.45;;
32874;SDS011;40468;42.128;24.750;2023-12-07T05:54:42;72.50;;;31.15;;
32874;SDS011;40468;42.128;24.750;2023-12-07T05:56:18;65.25;;;30.65;;
32874;SDS011;40468;42.128;24.750;2023-12-07T05:57:50;61.13;;;28.13;;
32874;SDS011;40468;42.128;24.750;2023-12-07T05:59:22;63.67;;;29.67;;
32874;SDS011;40468;42.128;24.750;2023-12-07T06:00:55;69.80;;;33.20;;
32874;SDS011;40468;42.128;24.750;2023-12-07T06:02:26;71.95;;;34.05;;
32874;SDS011;40468;42.128;24.750;2023-12-07T06:03:58;69.30;;;31.85;;
32874;SDS011;40468;42.128;24.750;2023-12-07T06:05:29;67.88;;;31.15;;
32874;SDS011;40468;42.128;24.750;2023-12-07T06:07:01;65.53;;;29.95;;
32874;SDS011;40468;42.128;24.750;2023-12-07T06:08:33;64.22;;;28.90;;
32874;SDS011;40468;42.128;24.750;2023-12-07T06:10:05;69.85;;;29.90;;
32874;SDS011;40468;42.128;24.750;2023-12-07T06:11:36;65.82;;;29.08;;
32874;SDS011;40468;42.128;24.750;2023-12-07T06:13:08;65.47;;;28.58;;
32874;SDS011;40468;42.128;24.750;2023-12-07T06:14:39;69.00;;;31.27;;
32874;SDS011;40468;42.128;24.750;2023-12-07T06:16:15;61.25;;;30.00;;
32874;SDS011;40468;42.128;24.750;2023-12-07T06:17:47;72.38;;;31.92;;
32874;SDS011;40468;42.128;24.750;2023-12-07T06:19:19;68.18;;;30.63;;
32874;SDS011;40468;42.128;24.750;2023-12-07T06:20:50;68.70;;;31.13;;
32874;SDS011;40468;42.128;24.750;2023-12-07T06:22:22;68.95;;;28.88;;
32874;SDS011;40468;42.128;24.750;2023-12-07T06:23:54;60.10;;;27.42;;
32874;SDS011;40468;42.128;24.750;2023-12-07T06:25:25;63.65;;;28.23;;
32874;SDS011;40468;42.128;24.750;2023-12-07T06:26:57;66.35;;;29.23;;
32874;SDS011;40468;42.128;24.750;2023-12-07T06:28:29;61.35;;;27.75;;
32874;SDS011;40468;42.128;24.750;2023-12-07T06:30:02;65.53;;;28.77;;
32874;SDS011;40468;42.128;24.750;2023-12-07T06:31:37;62.50;;;28.90;;
32874;SDS011;40468;42.128;24.750;2023-12-07T06:33:13;67.32;;;30.73;;
32874;SDS011;40468;42.128;24.750;2023-12-07T06:34:45;75.40;;;32.78;;
32874;SDS011;40468;42.128;24.750;2023-12-07T06:36:19;80.45;;;32.40;;
32874;SDS011;40468;42.128;24.750;2023-12-07T06:37:53;67.82;;;29.13;;
32874;SDS011;40468;42.128;24.750;2023-12-07T06:39:24;63.78;;;29.13;;
32874;SDS011;40468;42.128;24.750;2023-12-07T06:40:56;68.10;;;30.02;;
32874;SDS011;40468;42.128;24.750;2023-12-07T06:42:27;68.88;;;29.15;;
32874;SDS011;40468;42.128;24.750;2023-12-07T06:43:59;57.60;;;28.52;;
32874;SDS011;40468;42.128;24.750;2023-12-07T06:45:31;56.67;;;26.98;;
32874;SDS011;40468;42.128;24.750;2023-12-07T06:47:04;66.20;;;29.30;;
32874;SDS011;40468;42.128;24.750;2023-12-07T06:50:11;51.85;;;25.25;;
32874;SDS011;40468;42.128;24.750;2023-12-07T06:51:58;62.88;;;26.92;;
32874;SDS011;40468;42.128;24.750;2023-12-07T06:53:37;58.05;;;26.83;;
32874;SDS011;40468;42.128;24.750;2023-12-07T06:56:48;62.47;;;25.67;;
32874;SDS011;40468;42.128;24.750;2023-12-07T06:58:51;58.88;;;27.38;;
32874;SDS011;40468;42.128;24.750;2023-12-07T07:00:57;63.42;;;28.88;;
32874;SDS011;40468;42.128;24.750;2023-12-07T07:02:49;67.43;;;28.65;;
32874;SDS011;40468;42.128;24.750;2023-12-07T07:04:44;66.10;;;27.77;;
32874;SDS011;40468;42.128;24.750;2023-12-07T07:06:38;58.85;;;24.88;;
32874;SDS011;40468;42.128;24.750;2023-12-07T07:08:28;60.38;;;26.88;;
32874;SDS011;40468;42.128;24.750;2023-12-07T07:10:00;63.13;;;29.67;;
32874;SDS011;40468;42.128;24.750;2023-12-07T07:11:47;66.95;;;27.95;;
32874;SDS011;40468;42.128;24.750;2023-12-07T07:15:00;63.83;;;25.60;;
32874;SDS011;40468;42.128;24.750;2023-12-07T07:16:52;65.43;;;27.58;;
32874;SDS011;40468;42.128;24.750;2023-12-07T07:18:36;62.03;;;26.65;;
32874;SDS011;40468;42.128;24.750;2023-12-07T07:20:37;55.47;;;26.75;;
32874;SDS011;40468;42.128;24.750;2023-12-07T07:22:13;61.22;;;27.77;;
32874;SDS011;40468;42.128;24.750;2023-12-07T07:24:06;54.75;;;26.92;;
32874;SDS011;40468;42.128;24.750;2023-12-07T07:25:49;56.45;;;26.77;;
32874;SDS011;40468;42.128;24.750;2023-12-07T07:27:32;54.22;;;25.50;;
32874;SDS011;40468;42.128;24.750;2023-12-07T07:29:12;57.53;;;25.35;;
32874;SDS011;40468;42.128;24.750;2023-12-07T07:30:48;58.28;;;25.58;;
32874;SDS011;40468;42.128;24.750;2023-12-07T07:32:40;48.15;;;24.08;;
32874;SDS011;40468;42.128;24.750;2023-12-07T07:34:18;58.95;;;24.55;;
32874;SDS011;40468;42.128;24.750;2023-12-07T07:36:00;46.05;;;21.52;;
32874;SDS011;40468;42.128;24.750;2023-12-07T07:38:00;51.65;;;23.08;;
32874;SDS011;40468;42.128;24.750;2023-12-07T07:39:34;51.42;;;22.80;;
32874;SDS011;40468;42.128;24.750;2023-12-07T07:41:14;45.97;;;21.65;;
32874;SDS011;40468;42.128;24.750;2023-12-07T07:42:51;48.00;;;23.63;;
32874;SDS011;40468;42.128;24.750;2023-12-07T07:44:34;47.85;;;23.30;;
32874;SDS011;40468;42.128;24.750;2023-12-07T07:46:08;53.90;;;24.95;;
32874;SDS011;40468;42.128;24.750;2023-12-07T07:48:06;53.97;;;25.45;;
32874;SDS011;40468;42.128;24.750;2023-12-07T07:49:48;55.88;;;24.70;;
32874;SDS011;40468;42.128;24.750;2023-12-07T07:51:33;48.63;;;23.58;;
32874;SDS011;40468;42.128;24.750;2023-12-07T07:53:30;48.00;;;22.23;;
32874;SDS011;40468;42.128;24.750;2023-12-07T07:55:25;53.13;;;23.15;;
32874;SDS011;40468;42.128;24.750;2023-12-07T07:57:03;51.35;;;24.08;;
32874;SDS011;40468;42.128;24.750;2023-12-07T07:58:47;50.25;;;22.95;;
32874;SDS011;40468;42.128;24.750;2023-12-07T08:00:22;53.00;;;24.30;;
32874;SDS011;40468;42.128;24.750;2023-12-07T08:01:56;49.20;;;23.20;;
32874;SDS011;40468;42.128;24.750;2023-12-07T08:03:27;47.10;;;22.85;;
32874;SDS011;40468;42.128;24.750;2023-12-07T08:05:02;42.95;;;20.25;;
32874;SDS011;40468;42.128;24.750;2023-12-07T08:08:05;37.67;;;17.45;;
32874;SDS011;40468;42.128;24.750;2023-12-07T08:09:37;34.53;;;16.42;;
32874;SDS011;40468;42.128;24.750;2023-12-07T08:11:10;35.20;;;16.67;;
32874;SDS011;40468;42.128;24.750;2023-12-07T08:12:41;35.22;;;16.98;;
32874;SDS011;40468;42.128;24.750;2023-12-07T08:14:13;32.42;;;16.30;;
32874;SDS011;40468;42.128;24.750;2023-12-07T08:15:44;36.83;;;17.27;;
32874;SDS011;40468;42.128;24.750;2023-12-07T08:17:15;43.28;;;19.50;;
32874;SDS011;40468;42.128;24.750;2023-12-07T08:18:46;41.00;;;19.45;;
32874;SDS011;40468;42.128;24.750;2023-12-07T08:20:20;44.97;;;21.02;;
32874;SDS011;40468;42.128;24.750;2023-12-07T08:21:51;45.20;;;21.58;;
32874;SDS011;40468;42.128;24.750;2023-12-07T08:23:23;43.30;;;22.02;;
32874;SDS011;40468;42.128;24.750;2023-12-07T08:24:53;44.78;;;22.33;;
32874;SDS011;40468;42.128;24.750;2023-12-07T08:26:25;41.97;;;21.17;;
32874;SDS011;40468;42.128;24.750;2023-12-07T08:27:58;42.80;;;20.63;;
32874;SDS011;40468;42.128;24.750;2023-12-07T08:29:29;40.50;;;20.02;;
32874;SDS011;40468;42.128;24.750;2023-12-07T08:31:00;43.78;;;19.60;;
32874;SDS011;40468;42.128;24.750;2023-12-07T08:32:32;40.05;;;18.95;;
32874;SDS011;40468;42.128;24.750;2023-12-07T08:34:03;42.83;;;20.02;;
32874;SDS011;40468;42.128;24.750;2023-12-07T08:35:36;38.97;;;18.63;;
32874;SDS011;40468;42.128;24.750;2023-12-07T08:37:09;43.50;;;20.40;;
32874;SDS011;40468;42.128;24.750;2023-12-07T08:38:40;40.60;;;19.55;;
32874;SDS011;40468;42.128;24.750;2023-12-07T08:40:12;35.30;;;17.92;;
32874;SDS011;40468;42.128;24.750;2023-12-07T08:41:45;39.25;;;17.80;;
32874;SDS011;40468;42.128;24.750;2023-12-07T08:43:19;34.53;;;18.48;;
32874;SDS011;40468;42.128;24.750;2023-12-07T08:44:51;36.90;;;18.55;;
32874;SDS011;40468;42.128;24.750;2023-12-07T08:46:23;37.00;;;17.15;;
32874;SDS011;40468;42.128;24.750;2023-12-07T08:47:53;38.95;;;19.25;;
32874;SDS011;40468;42.128;24.750;2023-12-07T08:49:25;38.85;;;18.50;;
32874;SDS011;40468;42.128;24.750;2023-12-07T08:50:58;44.03;;;19.95;;
32874;SDS011;40468;42.128;24.750;2023-12-07T08:52:30;37.63;;;18.50;;
32874;SDS011;40468;42.128;24.750;2023-12-07T08:54:01;35.42;;;18.33;;
32874;SDS011;40468;42.128;24.750;2023-12-07T08:55:33;35.63;;;17.63;;
32874;SDS011;40468;42.128;24.750;2023-12-07T08:57:05;32.45;;;16.60;;
32874;SDS011;40468;42.128;24.750;2023-12-07T08:58:36;33.25;;;17.35;;
32874;SDS011;40468;42.128;24.750;2023-12-07T09:00:08;33.00;;;16.10;;
32874;SDS011;40468;42.128;24.750;2023-12-07T09:01:40;31.10;;;16.35;;
32874;SDS011;40468;42.128;24.750;2023-12-07T09:03:12;25.65;;;13.35;;
32874;SDS011;40468;42.128;24.750;2023-12-07T09:04:43;26.95;;;13.95;;
32874;SDS011;40468;42.128;24.750;2023-12-07T09:06:17;29.13;;;14.82;;
32874;SDS011;40468;42.128;24.750;2023-12-07T09:07:48;31.77;;;16.05;;
32874;SDS011;40468;42.128;24.750;2023-12-07T09:09:20;28.42;;;15.38;;
32874;SDS011;40468;42.128;24.750;2023-12-07T09:10:52;28.15;;;14.18;;
32874;SDS011;40468;42.128;24.750;2023-12-07T09:12:24;29.52;;;16.20;;